KDUX

Moore County Airport

Dumas, Texas, USA
METAR KDUX 180815Z AUTO 22009KT 10SM CLR M01/M05 A3004 RMK AO2 T10151050
Observed Flight Rules
Dec-18 @ 08:15 UTC (33 minutes ago) Visual Flight Rules
Wind Visibility Clouds
220° at 9 knots 10 miles
  • Clear skies
Temperatures Readings
Current -2°C / 28°F
Dewpoint -5°C / 23°F
Humidity 80%
Altimeter 30.04" Hg
Pressure 1017 hPa
Elevation 1129
METAR KDUX 180815Z AUTO 22009KT 10SM CLR M01/M05 A3004 RMK AO2 T10151050
Observed Flight Rules
Dec-18 @ 08:15 UTC
(33 minutes ago)
VFR
Wind Visibility
220° at 9 knots 10 miles
Clouds
  • Clear skies
Temperature Dewpoint
-2°C / 28°F -5°C / 23°F
Humidity Altimeter Pressure
80% 30.04" Hg 1017 hPa